createdAt,value
2018-08-22T00:00:34.330Z,101475.21
2018-08-22T00:03:03.397Z,101474.03
2018-08-22T00:05:34.120Z,101466.81
2018-08-22T00:08:03.547Z,101472.38
2018-08-22T00:10:33.657Z,101472.83
2018-08-22T00:13:03.616Z,101468.56
2018-08-22T00:15:34.450Z,101469.55
2018-08-22T00:18:03.951Z,101470.00
2018-08-22T00:20:33.478Z,101462.17
2018-08-22T00:23:04.685Z,101461.95
2018-08-22T00:25:34.125Z,101464.11
2018-08-22T00:28:05.421Z,101462.36
2018-08-22T00:30:34.907Z,101456.38
2018-08-22T00:33:04.355Z,101463.41
2018-08-22T00:35:33.930Z,101463.41
2018-08-22T00:38:03.864Z,101454.31
2018-08-22T00:40:33.164Z,101457.88
2018-08-22T00:43:02.042Z,101455.84
2018-08-22T00:45:31.416Z,101457.42
2018-08-22T00:48:03.286Z,101457.42
2018-08-22T00:50:33.549Z,101454.11
2018-08-22T00:53:06.766Z,101462.09
2018-08-22T00:55:36.295Z,101453.05
2018-08-22T00:58:06.212Z,101456.13
2018-08-22T01:00:35.794Z,101454.30
2018-08-22T01:03:05.270Z,101447.77
2018-08-22T01:05:35.094Z,101448.22
2018-08-22T01:08:04.738Z,101446.20
2018-08-22T01:10:33.268Z,101442.30
2018-08-22T01:13:02.983Z,101439.75
2018-08-22T01:15:33.640Z,101446.27
2018-08-22T01:18:04.209Z,101435.92
2018-08-22T01:20:35.159Z,101441.77
2018-08-22T01:23:04.589Z,101444.82
2018-08-22T01:25:33.155Z,101435.66
2018-08-22T01:28:02.578Z,101440.11
2018-08-22T01:30:33.022Z,101436.14
2018-08-22T01:33:02.204Z,101432.38
2018-08-22T01:35:31.575Z,101442.84
2018-08-22T01:38:01.554Z,101438.69
2018-08-22T01:40:31.102Z,101439.12
2018-08-22T01:43:02.820Z,101434.45
2018-08-22T01:45:31.756Z,101430.60
2018-08-22T01:48:02.079Z,101428.79
2018-08-22T01:50:35.332Z,101428.91
2018-08-22T01:53:04.084Z,101429.30
2018-08-22T01:55:33.411Z,101433.67
2018-08-22T01:58:04.104Z,101439.84
2018-08-22T02:00:32.684Z,101434.29
2018-08-22T02:03:02.113Z,101431.66
2018-08-22T02:05:32.722Z,101433.81
2018-08-22T02:08:02.206Z,101423.95
2018-08-22T02:10:32.055Z,101423.27
2018-08-22T02:13:02.318Z,101418.50
2018-08-22T02:15:34.109Z,101415.53
2018-08-22T02:18:06.587Z,101416.86
2018-08-22T02:20:37.237Z,101419.36
2018-08-22T02:23:06.545Z,101414.70
2018-08-22T02:25:36.258Z,101415.17
2018-08-22T02:28:05.875Z,101413.77
2018-08-22T02:30:34.425Z,101413.34
2018-08-22T02:33:04.747Z,101413.77
2018-08-22T02:35:33.599Z,101412.52
2018-08-22T02:38:04.185Z,101414.29
2018-08-22T02:40:37.898Z,101410.11
2018-08-22T02:43:07.052Z,101410.19
2018-08-22T02:45:36.146Z,101404.92
2018-08-22T02:48:06.103Z,101398.86
2018-08-22T02:50:35.606Z,101401.60
2018-08-22T02:53:04.078Z,101400.69
2018-08-22T02:55:33.905Z,101402.95
2018-08-22T02:58:03.517Z,101394.80
2018-08-22T03:00:32.652Z,101390.52
2018-08-22T03:03:02.539Z,101401.38
2018-08-22T03:05:31.802Z,101400.59
2018-08-22T03:08:00.430Z,101403.28
2018-08-22T03:10:29.099Z,101400.78
2018-08-22T03:13:00.094Z,101402.60
2018-08-22T03:15:29.273Z,101394.27
2018-08-22T03:17:58.724Z,101400.00
2018-08-22T03:20:27.368Z,101399.14
2018-08-22T03:22:56.757Z,101394.45
2018-08-22T03:25:27.009Z,101394.97
2018-08-22T03:27:56.718Z,101391.35
2018-08-22T03:30:25.382Z,101386.14
2018-08-22T03:32:54.125Z,101391.84
2018-08-22T03:35:25.732Z,101393.66
2018-08-22T03:37:55.284Z,101392.71
2018-08-22T03:40:25.403Z,101387.58
2018-08-22T03:42:54.043Z,101387.27
2018-08-22T03:45:24.603Z,101387.79
2018-08-22T03:47:53.306Z,101385.24
2018-08-22T03:50:22.136Z,101374.48
2018-08-22T03:52:51.036Z,101380.47
2018-08-22T03:55:19.774Z,101380.84
2018-08-22T03:57:48.537Z,101383.52
2018-08-22T04:00:17.039Z,101381.38
2018-08-22T04:02:47.195Z,101383.59
2018-08-22T04:05:16.591Z,101381.50
2018-08-22T04:07:45.189Z,101385.05
2018-08-22T04:10:13.673Z,101390.67
2018-08-22T04:12:42.189Z,101391.98
2018-08-22T04:15:11.346Z,101388.06
2018-08-22T04:17:40.794Z,101392.77
2018-08-22T04:20:10.928Z,101397.56
2018-08-22T04:22:42.614Z,101388.97
2018-08-22T04:25:12.338Z,101392.27
2018-08-22T04:27:44.849Z,101395.34
2018-08-22T04:30:18.006Z,101400.02
2018-08-22T04:32:51.932Z,101397.79
2018-08-22T04:35:21.280Z,101397.71
2018-08-22T04:37:50.459Z,101396.39
2018-08-22T04:40:19.254Z,101398.58
2018-08-22T04:42:47.917Z,101404.22
2018-08-22T04:45:17.207Z,101401.25
2018-08-22T04:47:48.268Z,101393.03
2018-08-22T04:50:17.997Z,101397.81
2018-08-22T04:52:47.977Z,101401.71
2018-08-22T04:55:20.303Z,101408.14
2018-08-22T04:57:49.558Z,101390.45
2018-08-22T05:00:23.590Z,101396.06
2018-08-22T05:02:52.720Z,101394.25
2018-08-22T05:05:22.630Z,101394.61
2018-08-22T05:07:51.843Z,101391.57
2018-08-22T05:10:20.435Z,101395.53
2018-08-22T05:12:53.504Z,101392.51
2018-08-22T05:15:23.408Z,101389.47
2018-08-22T05:17:52.082Z,101389.09
2018-08-22T05:20:21.259Z,101396.91
2018-08-22T05:22:51.111Z,101392.53
2018-08-22T05:25:21.642Z,101390.92
2018-08-22T05:27:50.354Z,101389.20
2018-08-22T05:30:20.209Z,101387.82
2018-08-22T05:32:48.996Z,101378.20
2018-08-22T05:35:17.558Z,101384.62
2018-08-22T05:37:48.000Z,101385.83
2018-08-22T05:40:17.851Z,101380.03
2018-08-22T05:42:47.438Z,101380.81
2018-08-22T05:45:16.119Z,101385.52
2018-08-22T05:47:45.272Z,101382.40
2018-08-22T05:50:14.838Z,101382.33
2018-08-22T05:52:44.269Z,101389.04
2018-08-22T05:55:13.668Z,101383.16
2018-08-22T05:57:42.275Z,101376.20
2018-08-22T06:00:12.073Z,101370.84
2018-08-22T06:02:41.495Z,101371.53
2018-08-22T06:05:11.643Z,101375.36
2018-08-22T06:07:42.419Z,101374.70
2018-08-22T06:10:11.237Z,101376.25
2018-08-22T06:12:40.845Z,101372.94
2018-08-22T06:15:09.624Z,101377.16
2018-08-22T06:17:38.590Z,101376.86
2018-08-22T06:20:07.597Z,101371.03
2018-08-22T06:22:36.871Z,101370.83
2018-08-22T06:25:06.391Z,101367.56
2018-08-22T06:27:35.191Z,101369.81
2018-08-22T06:30:04.267Z,101370.94
2018-08-22T06:32:33.791Z,101361.59
2018-08-22T06:35:02.928Z,101361.38
2018-08-22T06:37:31.495Z,101360.37
2018-08-22T06:40:01.820Z,101364.98
2018-08-22T06:42:30.870Z,101361.06
2018-08-22T06:45:00.609Z,101357.34
2018-08-22T06:47:31.477Z,101363.95
2018-08-22T06:50:00.030Z,101356.92
2018-08-22T06:52:28.941Z,101358.89
2018-08-22T06:54:59.310Z,101361.58
2018-08-22T06:57:29.191Z,101359.08
2018-08-22T07:00:00.457Z,101357.97
2018-08-22T07:02:30.037Z,101355.16
2018-08-22T07:04:59.797Z,101355.84
2018-08-22T07:07:28.861Z,101352.91
2018-08-22T07:09:59.038Z,101353.07
2018-08-22T07:12:27.699Z,101350.35
2018-08-22T07:15:02.179Z,101349.17
2018-08-22T07:17:31.779Z,101355.85
2018-08-22T07:20:00.532Z,101351.22
2018-08-22T07:22:30.239Z,101351.52
2018-08-22T07:24:59.737Z,101349.20
2018-08-22T07:27:30.140Z,101344.98
2018-08-22T07:30:03.316Z,101339.08
2018-08-22T07:32:35.046Z,101337.16
2018-08-22T07:35:05.821Z,101342.50
2018-08-22T07:37:34.648Z,101333.55
2018-08-22T07:40:05.182Z,101335.03
2018-08-22T07:42:35.048Z,101333.20
2018-08-22T07:45:03.796Z,101329.44
2018-08-22T07:47:33.036Z,101328.25
2018-08-22T07:50:01.673Z,101333.25
2018-08-22T07:52:32.231Z,101335.50
2018-08-22T07:55:02.330Z,101333.16
2018-08-22T07:57:30.824Z,101339.85
2018-08-22T08:00:00.121Z,101330.80
2018-08-22T08:02:30.276Z,101326.17
2018-08-22T08:04:59.015Z,101327.63
2018-08-22T08:07:28.526Z,101332.11
2018-08-22T08:09:58.266Z,101333.16
2018-08-22T08:12:33.261Z,101327.16
2018-08-22T08:15:04.766Z,101319.91
2018-08-22T08:17:34.016Z,101324.42
2018-08-22T08:20:03.410Z,101326.41
2018-08-22T08:22:33.652Z,101324.43
2018-08-22T08:25:06.029Z,101322.80
2018-08-22T08:27:36.402Z,101319.89
2018-08-22T08:30:09.457Z,101323.09
2018-08-22T08:32:39.377Z,101314.00
2018-08-22T08:35:09.413Z,101307.03
2018-08-22T08:37:40.491Z,101304.16
2018-08-22T08:40:10.726Z,101304.14
2018-08-22T08:45:24.411Z,101293.68
2018-08-22T08:47:55.134Z,101298.64
2018-08-22T08:50:24.385Z,101295.75
2018-08-22T08:52:53.737Z,101292.47
2018-08-22T08:55:23.330Z,101293.89
2018-08-22T08:57:51.910Z,101285.72
2018-08-22T09:00:21.348Z,101285.00
2018-08-22T09:02:51.167Z,101278.44
2018-08-22T09:05:21.371Z,101275.45
2018-08-22T09:07:53.857Z,101267.15
2018-08-22T09:10:22.701Z,101267.23
2018-08-22T09:12:52.184Z,101263.11
2018-08-22T09:15:20.888Z,101255.55
2018-08-22T09:17:52.688Z,101258.48
2018-08-22T09:20:21.687Z,101250.91
2018-08-22T09:22:50.397Z,101246.87
2018-08-22T09:25:20.480Z,101243.86
2018-08-22T09:27:49.199Z,101246.72
2018-08-22T09:30:17.835Z,101244.31
2018-08-22T09:32:47.543Z,101246.22
2018-08-22T09:35:16.520Z,101240.42
2018-08-22T09:37:46.234Z,101237.33
2018-08-22T09:40:18.023Z,101236.98
2018-08-22T09:42:46.657Z,101238.35
2018-08-22T09:45:15.208Z,101236.80
2018-08-22T09:47:44.271Z,101231.34
2018-08-22T09:50:13.574Z,101233.84
2018-08-22T09:52:45.577Z,101232.18
2018-08-22T09:55:17.524Z,101229.77
2018-08-22T09:57:47.734Z,101222.97
2018-08-22T10:00:22.128Z,101221.69
2018-08-22T10:02:52.023Z,101222.01
2018-08-22T10:05:22.020Z,101215.83
2018-08-22T10:07:51.116Z,101205.80
2018-08-22T10:10:19.790Z,101208.17
2018-08-22T10:12:49.507Z,101203.26
2018-08-22T10:15:19.461Z,101199.51
2018-08-22T10:17:49.069Z,101188.28
2018-08-22T10:20:18.507Z,101189.16
2018-08-22T10:22:48.246Z,101184.63
2018-08-22T10:25:18.339Z,101180.68
2018-08-22T10:27:48.153Z,101178.43
2018-08-22T10:30:17.637Z,101184.47
2018-08-22T10:32:50.301Z,101174.59
2018-08-22T10:35:19.376Z,101175.32
2018-08-22T10:37:49.497Z,101171.66
2018-08-22T10:40:19.299Z,101178.09
2018-08-22T10:42:58.759Z,101166.09
2018-08-22T10:45:27.353Z,101172.41
2018-08-22T10:47:57.254Z,101171.12
2018-08-22T10:50:27.611Z,101166.58
2018-08-22T10:52:56.279Z,101164.11
2018-08-22T10:55:27.438Z,101155.73
2018-08-22T10:57:58.216Z,101158.64
2018-08-22T11:00:28.019Z,101157.16
2018-08-22T11:02:58.113Z,101160.53
2018-08-22T11:05:28.982Z,101148.84
2018-08-22T11:07:59.100Z,101138.59
2018-08-22T11:10:29.354Z,101140.92
2018-08-22T11:12:59.473Z,101140.72
2018-08-22T11:15:30.067Z,101138.42
2018-08-22T11:17:59.806Z,101138.80
2018-08-22T11:20:29.434Z,101133.78
2018-08-22T11:23:10.096Z,101132.42
2018-08-22T11:25:50.337Z,101135.15
2018-08-22T11:28:30.475Z,101130.53
2018-08-22T11:31:10.858Z,101130.48
2018-08-22T11:33:51.400Z,101128.69
2018-08-22T11:36:20.426Z,101130.55
2018-08-22T11:38:49.630Z,101130.59
2018-08-22T11:41:19.777Z,101119.71
2018-08-22T11:43:48.540Z,101114.39
2018-08-22T11:46:17.857Z,101119.62
2018-08-22T11:48:47.516Z,101114.80
2018-08-22T11:51:17.529Z,101115.09
2018-08-22T11:53:46.852Z,101104.91
2018-08-22T11:56:16.966Z,101102.95
2018-08-22T11:58:46.034Z,101104.95
2018-08-22T12:01:17.313Z,101096.77
2018-08-22T12:03:48.619Z,101092.91
2018-08-22T12:06:17.531Z,101092.80
2018-08-22T12:08:51.122Z,101091.09
2018-08-22T12:11:21.540Z,101091.48
2018-08-22T12:13:50.314Z,101082.30
2018-08-22T12:16:19.061Z,101093.27
2018-08-22T12:18:47.878Z,101084.19
2018-08-22T12:21:16.493Z,101073.02
2018-08-22T12:23:46.237Z,101075.70
2018-08-22T12:26:15.896Z,101063.20
2018-08-22T12:28:44.683Z,101060.41
2018-08-22T12:31:14.504Z,101061.02
2018-08-22T12:33:43.058Z,101058.06
2018-08-22T12:36:11.681Z,101053.39
2018-08-22T12:38:40.373Z,101046.87
2018-08-22T12:41:10.090Z,101050.85
2018-08-22T12:43:38.626Z,101049.17
2018-08-22T12:46:07.274Z,101039.05
2018-08-22T12:48:36.805Z,101037.13
2018-08-22T12:51:05.430Z,101036.03
2018-08-22T12:53:34.128Z,101036.75
2018-08-22T12:56:02.813Z,101027.70
2018-08-22T12:58:31.621Z,101027.20
2018-08-22T13:01:02.087Z,101021.86
2018-08-22T13:03:30.743Z,101020.39
2018-08-22T13:06:00.458Z,101016.74
2018-08-22T13:08:29.157Z,101013.37
2018-08-22T13:10:59.250Z,101016.99
2018-08-22T13:13:27.719Z,101014.66
2018-08-22T13:15:56.351Z,101013.70
2018-08-22T13:18:24.996Z,101012.27
2018-08-22T13:20:55.033Z,101007.91
2018-08-22T13:23:24.824Z,101005.47
2018-08-22T13:25:53.771Z,100997.09
2018-08-22T13:28:23.446Z,100993.56
2018-08-22T13:30:52.463Z,100988.48
2018-08-22T13:33:21.416Z,100986.88
2018-08-22T13:35:50.696Z,100974.56
2018-08-22T13:38:21.251Z,100977.36
2018-08-22T13:40:49.966Z,100976.41
2018-08-22T13:43:18.599Z,100976.41
2018-08-22T13:45:48.318Z,100975.78
2018-08-22T13:48:17.096Z,100975.35
2018-08-22T13:50:47.683Z,100968.28
2018-08-22T13:53:17.607Z,100965.26
2018-08-22T13:55:46.108Z,100968.18
2018-08-22T13:58:14.733Z,100965.63
2018-08-22T14:00:43.913Z,100965.86
2018-08-22T14:03:13.639Z,100962.77
2018-08-22T14:05:43.288Z,100956.08
2018-08-22T14:08:12.373Z,100956.76
2018-08-22T14:10:41.761Z,100951.77
2018-08-22T14:13:10.418Z,100954.03
2018-08-22T14:15:39.151Z,100956.43
2018-08-22T14:18:08.905Z,100941.08
2018-08-22T14:20:37.468Z,100949.56
2018-08-22T14:23:07.338Z,100952.48
2018-08-22T14:25:36.028Z,100943.41
2018-08-22T14:28:05.781Z,100946.45
2018-08-22T14:30:35.330Z,100942.05
2018-08-22T14:33:05.195Z,100936.56
2018-08-22T14:35:33.882Z,100936.75
2018-08-22T14:38:02.730Z,100948.91
2018-08-22T14:40:31.333Z,100936.31
2018-08-22T14:43:00.318Z,100935.73
2018-08-22T14:45:29.090Z,100933.86
2018-08-22T14:47:57.759Z,100935.53
2018-08-22T14:50:26.661Z,100936.13
2018-08-22T14:52:55.576Z,100929.27
2018-08-22T14:55:24.142Z,100928.42
2018-08-22T14:57:53.132Z,100923.66
2018-08-22T15:00:22.610Z,100922.71
2018-08-22T15:02:52.232Z,100917.17
2018-08-22T15:05:20.694Z,100918.83
2018-08-22T15:07:50.099Z,100918.14
2018-08-22T15:10:19.216Z,100911.41
2018-08-22T15:12:49.526Z,100910.56
2018-08-22T15:15:19.118Z,100906.33
2018-08-22T15:17:48.307Z,100905.08
2018-08-22T15:20:18.373Z,100900.61
2018-08-22T15:22:46.966Z,100896.86
2018-08-22T15:25:15.456Z,100894.14
2018-08-22T15:27:45.045Z,100896.03
2018-08-22T15:30:14.089Z,100887.67
2018-08-22T15:32:42.743Z,100883.39
2018-08-22T15:35:12.803Z,100885.56
2018-08-22T15:37:41.363Z,100875.05
2018-08-22T15:40:10.110Z,100879.94
2018-08-22T15:42:39.756Z,100871.83
2018-08-22T15:45:08.350Z,100880.06
2018-08-22T15:47:37.299Z,100874.80
2018-08-22T15:50:06.639Z,100880.04
2018-08-22T15:52:35.379Z,100882.94
2018-08-22T15:55:10.205Z,100880.83
2018-08-22T15:57:56.159Z,100875.23
2018-08-22T16:00:35.849Z,100871.89
2018-08-22T16:03:06.126Z,100873.04
2018-08-22T16:05:36.933Z,100872.95
2018-08-22T16:08:06.538Z,100870.89
2018-08-22T16:10:36.204Z,100862.29
2018-08-22T16:13:06.646Z,100857.92
2018-08-22T16:15:36.753Z,100851.82
2018-08-22T16:18:09.191Z,100850.92
2018-08-22T16:20:44.757Z,100850.25
2018-08-22T16:23:13.796Z,100850.08
2018-08-22T16:25:44.579Z,100845.67
2018-08-22T16:28:13.682Z,100836.02
2018-08-22T16:30:43.182Z,100840.80
2018-08-22T16:33:12.272Z,100842.38
2018-08-22T16:35:41.518Z,100843.72
2018-08-22T16:38:12.616Z,100840.95
2018-08-22T16:40:43.695Z,100836.75
2018-08-22T16:43:12.982Z,100831.20
2018-08-22T16:45:46.962Z,100835.88
2018-08-22T16:48:19.117Z,100839.05
2018-08-22T16:50:48.560Z,100842.36
2018-08-22T16:53:17.147Z,100841.44
2018-08-22T16:55:47.991Z,100835.91
2018-08-22T16:58:18.969Z,100836.16
2018-08-22T17:00:48.126Z,100830.27
2018-08-22T17:03:18.055Z,100830.26
2018-08-22T17:05:47.446Z,100834.34
2018-08-22T17:08:16.147Z,100824.12
2018-08-22T17:10:51.715Z,100827.52
2018-08-22T17:13:31.051Z,100820.53
2018-08-22T17:16:02.067Z,100827.52
2018-08-22T17:18:30.736Z,100823.88
2018-08-22T17:21:00.241Z,100821.94
2018-08-22T17:23:29.016Z,100823.00
2018-08-22T17:25:58.716Z,100819.63
2018-08-22T17:28:38.113Z,100814.95
2018-08-22T17:31:08.246Z,100814.45
2018-08-22T17:33:39.358Z,100817.67
2018-08-22T17:36:08.792Z,100814.19
2018-08-22T17:38:37.796Z,100814.62
2018-08-22T17:41:06.643Z,100817.48
2018-08-22T17:43:51.629Z,100814.93
2018-08-22T17:46:20.540Z,100813.95
2018-08-22T17:48:49.805Z,100812.62
2018-08-22T17:51:18.460Z,100803.80
2018-08-22T17:53:47.836Z,100808.95
2018-08-22T17:56:18.889Z,100813.37
2018-08-22T17:58:50.922Z,100816.58
2018-08-22T18:01:22.162Z,100815.35
2018-08-22T18:03:51.977Z,100821.06
2018-08-22T18:06:20.997Z,100819.45
2018-08-22T18:08:51.059Z,100822.08
2018-08-22T18:11:20.670Z,100816.73
2018-08-22T18:13:50.182Z,100819.45
2018-08-22T18:16:19.300Z,100823.02
2018-08-22T18:18:51.298Z,100822.72
2018-08-22T18:21:20.724Z,100823.26
2018-08-22T18:23:53.519Z,100823.80
2018-08-22T18:26:23.102Z,100825.16
2018-08-22T18:28:52.571Z,100830.24
2018-08-22T18:31:22.269Z,100833.31
2018-08-22T18:34:01.832Z,100834.66
2018-08-22T18:36:32.177Z,100836.25
2018-08-22T18:39:10.988Z,100839.32
2018-08-22T18:41:40.209Z,100838.69
2018-08-22T18:44:08.965Z,100842.15
2018-08-22T18:46:38.504Z,100844.06
2018-08-22T18:49:07.491Z,100845.65
2018-08-22T18:51:36.416Z,100847.22
2018-08-22T18:54:06.529Z,100848.58
2018-08-22T18:56:35.630Z,100847.67
2018-08-22T18:59:16.587Z,100846.36
2018-08-22T19:01:46.519Z,100849.88
2018-08-22T19:04:15.242Z,100851.02
2018-08-22T19:06:44.339Z,100849.38
2018-08-22T19:09:13.165Z,100849.77
2018-08-22T19:11:42.076Z,100850.08
2018-08-22T19:14:11.872Z,100849.79
2018-08-22T19:16:41.448Z,100851.86
2018-08-22T19:19:10.517Z,100854.40
2018-08-22T19:21:39.511Z,100855.53
2018-08-22T19:24:07.888Z,100848.42
2018-08-22T19:26:36.777Z,100853.97
2018-08-22T19:29:06.421Z,100846.94
2018-08-22T19:31:36.979Z,100844.31
2018-08-22T19:34:05.725Z,100854.66
2018-08-22T19:36:34.456Z,100853.36
2018-08-22T19:39:04.851Z,100852.32
2018-08-22T19:41:35.588Z,100853.56
2018-08-22T19:46:48.176Z,100858.45
2018-08-22T19:49:17.069Z,100855.20
2018-08-22T19:51:45.625Z,100853.34
2018-08-22T19:54:15.416Z,100856.91
2018-08-22T19:56:44.148Z,100860.39
2018-08-22T19:59:14.283Z,100858.30
2018-08-22T20:01:43.128Z,100854.16
2018-08-22T20:04:19.726Z,100853.70
2018-08-22T20:06:48.537Z,100854.08
2018-08-22T20:09:17.743Z,100854.66
2018-08-22T20:11:46.832Z,100852.49
2018-08-22T20:14:15.490Z,100856.12
2018-08-22T20:16:54.571Z,100848.70
2018-08-22T20:19:23.277Z,100853.97
2018-08-22T20:21:53.023Z,100847.69
2018-08-22T20:24:25.475Z,100849.47
2018-08-22T20:27:00.674Z,100846.45
2018-08-22T20:29:30.169Z,100852.18
2018-08-22T20:32:10.904Z,100851.25
2018-08-22T20:34:39.547Z,100856.51
2018-08-22T20:37:09.097Z,100854.34
2018-08-22T20:39:38.681Z,100853.03
2018-08-22T20:42:10.690Z,100853.68
2018-08-22T20:44:43.716Z,100851.05
2018-08-22T20:51:04.476Z,100849.53
2018-08-22T20:53:33.006Z,100851.03
2018-08-22T20:56:14.788Z,100852.61
2018-08-22T20:58:53.649Z,100846.09
2018-08-22T21:01:29.723Z,100846.17
2018-08-22T21:04:03.110Z,100845.79
2018-08-22T21:06:36.557Z,100851.80
2018-08-22T21:12:04.347Z,100850.47
2018-08-22T21:14:40.666Z,100851.00
2018-08-22T21:17:15.728Z,100848.17
2018-08-22T21:19:50.680Z,100848.54
2018-08-22T21:22:41.007Z,100845.06
2018-08-22T21:25:15.234Z,100845.23
2018-08-22T21:27:49.418Z,100840.70
2018-08-22T21:30:26.590Z,100848.02
2018-08-22T21:32:57.661Z,100845.00
2018-08-22T21:35:39.684Z,100848.20
2018-08-22T21:38:17.631Z,100845.65
2018-08-22T21:40:53.413Z,100843.48
2018-08-22T21:43:26.988Z,100837.95
2018-08-22T21:46:06.209Z,100846.40
2018-08-22T21:48:54.478Z,100841.29
2018-08-22T21:54:16.319Z,100839.02
2018-08-22T21:59:39.585Z,100840.23
2018-08-22T22:02:12.458Z,100849.24
2018-08-22T22:09:50.936Z,100834.73
2018-08-22T22:15:24.498Z,100843.73
2018-08-22T22:17:58.184Z,100831.34
2018-08-22T22:20:32.652Z,100837.69
2018-08-22T22:23:04.999Z,100831.69
2018-08-22T22:25:42.326Z,100834.94
2018-08-22T22:32:04.566Z,100833.19
2018-08-22T22:34:39.928Z,100834.35
2018-08-22T22:37:13.631Z,100831.73
2018-08-22T22:39:48.368Z,100833.60
2018-08-22T22:42:28.218Z,100829.38
2018-08-22T22:45:00.819Z,100833.84
2018-08-22T22:47:33.617Z,100828.37
2018-08-22T22:50:16.597Z,100830.63
2018-08-22T22:52:52.857Z,100832.02
2018-08-22T22:55:30.357Z,100834.67
2018-08-22T22:57:59.101Z,100834.84
2018-08-22T23:00:45.218Z,100841.56
2018-08-22T23:03:17.245Z,100843.27
2018-08-22T23:05:56.230Z,100841.31
2018-08-22T23:08:25.542Z,100840.23
2018-08-22T23:10:54.084Z,100830.20
2018-08-22T23:13:25.806Z,100834.06
2018-08-22T23:15:54.390Z,100833.50
2018-08-22T23:18:22.986Z,100835.98
2018-08-22T23:20:53.155Z,100829.89
2018-08-22T23:23:37.026Z,100828.42
2018-08-22T23:26:13.967Z,100832.05
2018-08-22T23:28:43.914Z,100834.67
2018-08-22T23:31:15.579Z,100836.08
2018-08-22T23:33:44.216Z,100827.14
2018-08-22T23:36:12.752Z,100827.98
2018-08-22T23:38:41.322Z,100834.55
2018-08-22T23:41:10.482Z,100835.28
2018-08-22T23:43:44.855Z,100840.36
2018-08-22T23:46:14.298Z,100839.90
2018-08-22T23:48:43.010Z,100836.27
2018-08-22T23:51:12.985Z,100841.38
2018-08-22T23:53:47.593Z,100840.39
2018-08-22T23:56:21.536Z,100843.94
2018-08-22T23:58:50.968Z,100841.17
